Time;durP1;ratioP1;P1;durP2;ratioP2;P2;SDS_P1;SDS_P2;PMS_P1;PMS_P2;Temp;Humidity;BMP_temperature;BMP_pressure;BME280_temperature;BME280_humidity;BME280_pressure;Samples;Min_cycle;Max_cycle;Signal;HPM_P1;HPM_P2
2023/01/15 00:00:47;;;;;;;4.22;0.70;;;5.80;96.20;;;;;;5022441;28;20025;-73
2023/01/15 00:03:12;;;;;;;2.55;0.57;;;5.80;96.40;;;;;;5033434;28;20040;-73
2023/01/15 00:05:38;;;;;;;4.18;0.70;;;5.70;96.30;;;;;;5032827;28;20045;-73
2023/01/15 00:08:04;;;;;;;3.40;0.75;;;5.70;96.30;;;;;;5023501;28;20104;-73
2023/01/15 00:10:29;;;;;;;2.55;0.63;;;5.70;96.10;;;;;;5031536;28;20048;-72
2023/01/15 00:12:54;;;;;;;5.25;0.60;;;5.70;96.10;;;;;;5029410;28;20099;-73
2023/01/15 00:15:20;;;;;;;3.58;0.60;;;5.80;95.70;;;;;;5028843;28;20087;-73
2023/01/15 00:17:45;;;;;;;3.40;0.55;;;5.70;95.80;;;;;;5034391;28;20033;-73
2023/01/15 00:20:11;;;;;;;3.38;0.55;;;5.70;96.20;;;;;;5033242;28;20030;-73
2023/01/15 00:22:37;;;;;;;1.92;0.60;;;5.60;96.40;;;;;;5033981;28;20057;-72
2023/01/15 00:27:47;;;;;;;5.85;0.90;;;5.70;96.40;;;;;;5031756;28;20484;-73
2023/01/15 00:30:14;;;;;;;2.58;0.73;;;5.70;96.20;;;;;;5031297;28;20037;-72
2023/01/15 00:32:42;;;;;;;4.10;0.73;;;5.70;96.20;;;;;;5033091;28;20453;-73
2023/01/15 00:35:11;;;;;;;4.13;0.85;;;5.70;96.30;;;;;;5025622;28;20033;-73
2023/01/15 00:37:37;;;;;;;1.73;0.68;;;5.70;96.50;;;;;;5035627;28;20120;-72
2023/01/15 00:40:03;;;;;;;9.68;0.80;;;5.70;96.40;;;;;;5032187;28;20119;-72
2023/01/15 00:42:28;;;;;;;2.97;0.70;;;5.70;96.50;;;;;;5033191;28;20033;-74
2023/01/15 00:44:54;;;;;;;3.25;0.88;;;5.70;96.80;;;;;;5027075;28;20083;-73
2023/01/15 00:47:19;;;;;;;4.63;0.98;;;5.70;96.80;;;;;;5029347;28;20373;-72
2023/01/15 00:49:45;;;;;;;4.75;0.93;;;5.70;97.00;;;;;;5021616;28;20033;-74
2023/01/15 00:52:11;;;;;;;5.28;0.90;;;5.70;97.20;;;;;;5030058;28;20044;-74
2023/01/15 00:54:37;;;;;;;2.20;0.50;;;5.80;97.20;;;;;;5030601;28;20029;-73
2023/01/15 00:57:02;;;;;;;2.42;0.73;;;5.70;97.40;;;;;;5034847;28;20603;-73
2023/01/15 00:59:28;;;;;;;4.32;0.80;;;5.80;97.40;;;;;;5032180;28;20029;-72
2023/01/15 01:01:53;;;;;;;3.22;0.88;;;5.80;97.60;;;;;;5032617;28;20026;-73
2023/01/15 01:04:19;;;;;;;4.85;0.95;;;5.80;97.60;;;;;;5029406;28;20394;-73
2023/01/15 01:06:44;;;;;;;6.05;1.17;;;5.80;97.70;;;;;;5029419;28;20108;-73
2023/01/15 01:09:12;;;;;;;3.78;0.90;;;5.80;97.70;;;;;;5026846;28;20045;-73
2023/01/15 01:11:38;;;;;;;3.20;0.90;;;5.80;97.80;;;;;;5032296;28;20032;-73
2023/01/15 01:14:04;;;;;;;5.70;1.00;;;5.80;97.80;;;;;;5026744;28;20124;-73
2023/01/15 01:16:30;;;;;;;5.20;1.25;;;5.80;97.90;;;;;;5028649;28;20037;-73
2023/01/15 01:18:57;;;;;;;3.67;1.15;;;5.80;97.90;;;;;;5023836;28;20030;-72
2023/01/15 01:21:23;;;;;;;5.90;0.77;;;5.80;98.00;;;;;;5028714;28;20577;-72
2023/01/15 01:23:49;;;;;;;3.78;1.08;;;5.80;98.00;;;;;;5026815;28;20087;-73
2023/01/15 01:26:15;;;;;;;5.50;1.05;;;5.80;98.00;;;;;;5016173;28;20042;-72
2023/01/15 01:28:41;;;;;;;3.50;0.80;;;5.90;97.80;;;;;;5028257;28;20049;-73
2023/01/15 01:31:07;;;;;;;5.22;1.10;;;5.80;97.80;;;;;;5028171;28;20474;-72
2023/01/15 01:33:33;;;;;;;7.13;1.40;;;5.90;97.60;;;;;;5026881;28;20033;-72
2023/01/15 01:35:58;;;;;;;3.55;0.88;;;5.90;97.50;;;;;;5025227;28;20409;-73
2023/01/15 01:38:24;;;;;;;6.82;1.23;;;5.90;97.20;;;;;;5027025;28;20140;-75
2023/01/15 01:40:49;;;;;;;6.53;1.10;;;5.90;97.20;;;;;;5023665;28;20030;-73
2023/01/15 01:43:27;;;;;;;4.10;0.88;;;5.90;97.00;;;;;;5029161;28;20034;-73
2023/01/15 01:45:53;;;;;;;2.97;0.80;;;5.90;96.70;;;;;;5020850;28;20755;-72
2023/01/15 01:48:25;;;;;;;5.93;1.00;;;6.10;96.10;;;;;;5027326;28;20044;-73
2023/01/15 01:50:53;;;;;;;7.38;1.17;;;6.00;96.20;;;;;;5028181;28;20025;-73
2023/01/15 01:53:21;;;;;;;3.90;0.95;;;6.00;95.80;;;;;;5023039;28;20022;-73
2023/01/15 01:55:48;;;;;;;2.80;0.70;;;6.10;95.50;;;;;;5030469;28;20124;-73
2023/01/15 01:58:15;;;;;;;8.85;1.27;;;6.10;95.40;;;;;;5031996;28;20041;-73
2023/01/15 02:00:45;;;;;;;5.07;1.13;;;6.10;95.20;;;;;;5028287;28;20335;-73
2023/01/15 02:03:11;;;;;;;9.23;1.02;;;6.00;95.00;;;;;;5023772;28;20045;-73
2023/01/15 02:05:40;;;;;;;4.78;0.85;;;6.10;94.40;;;;;;5030619;28;20049;-73
2023/01/15 02:08:06;;;;;;;5.35;1.00;;;6.00;94.70;;;;;;5024759;28;20048;-73
2023/01/15 02:10:32;;;;;;;10.05;1.15;;;6.00;94.40;;;;;;5030603;28;20034;-73
2023/01/15 02:13:06;;;;;;;4.57;1.08;;;5.90;94.50;;;;;;5031328;28;20034;-73
2023/01/15 02:15:37;;;;;;;7.07;1.05;;;6.00;94.00;;;;;;5024480;28;20039;-73
2023/01/15 02:18:30;;;;;;;4.65;0.95;;;6.00;93.60;;;;;;5021560;28;20522;-73
2023/01/15 02:21:03;;;;;;;9.80;1.13;;;6.10;92.90;;;;;;5022226;28;20037;-73
2023/01/15 02:23:58;;;;;;;5.95;1.13;;;6.00;93.40;;;;;;5027327;28;20046;-73
2023/01/15 02:26:47;;;;;;;5.57;0.90;;;6.00;93.50;;;;;;5025779;28;20453;-72
2023/01/15 02:29:18;;;;;;;3.70;1.02;;;6.00;93.60;;;;;;5025810;28;20040;-74
2023/01/15 02:31:49;;;;;;;6.65;1.23;;;6.00;93.00;;;;;;5024349;28;20030;-73
2023/01/15 02:34:38;;;;;;;6.50;0.90;;;6.00;93.30;;;;;;5022865;28;20037;-74
2023/01/15 02:37:11;;;;;;;5.20;1.10;;;6.10;93.00;;;;;;5024282;28;20091;-74
2023/01/15 02:39:40;;;;;;;4.90;1.48;;;6.00;93.50;;;;;;5027672;28;20458;-73
2023/01/15 02:42:08;;;;;;;6.22;1.10;;;5.90;94.10;;;;;;5028869;28;20116;-73
2023/01/15 02:44:37;;;;;;;9.45;1.30;;;5.90;93.80;;;;;;5026004;28;20095;-73
2023/01/15 02:47:04;;;;;;;6.82;1.30;;;5.90;93.70;;;;;;5028815;28;20029;-73
2023/01/15 02:49:31;;;;;;;7.22;1.60;;;5.90;93.60;;;;;;5024795;28;20039;-74
2023/01/15 02:52:03;;;;;;;7.93;1.25;;;5.90;93.90;;;;;;5026338;28;20025;-73
2023/01/15 02:54:35;;;;;;;4.07;1.10;;;5.90;93.90;;;;;;5020726;28;20033;-73
2023/01/15 02:57:02;;;;;;;6.13;1.20;;;6.00;93.70;;;;;;5026547;28;20025;-73
2023/01/15 02:59:35;;;;;;;7.95;0.88;;;6.00;93.50;;;;;;5029463;28;20041;-72
2023/01/15 03:02:05;;;;;;;4.78;1.08;;;5.90;93.60;;;;;;5030818;28;20038;-73
2023/01/15 03:04:53;;;;;;;10.00;1.13;;;5.90;93.60;;;;;;5017720;28;20063;-73
2023/01/15 03:07:33;;;;;;;6.07;1.00;;;5.90;93.60;;;;;;5022311;28;20037;-73
2023/01/15 03:09:59;;;;;;;6.00;0.95;;;5.90;93.70;;;;;;5025308;28;20378;-73
2023/01/15 03:13:01;;;;;;;6.43;1.00;;;5.90;93.70;;;;;;5030352;28;20041;-73
2023/01/15 03:18:20;;;;;;;8.68;1.70;;;5.90;93.90;;;;;;5024114;28;20314;-73
2023/01/15 03:20:49;;;;;;;;;;;5.90;94.00;;;;;;5029146;28;20039;-72
2023/01/15 03:23:17;;;;;;;7.93;1.00;;;5.90;94.10;;;;;;5027903;28;19927;-72
2023/01/15 03:25:48;;;;;;;5.88;1.08;;;5.80;94.50;;;;;;5025540;28;20038;-73
2023/01/15 03:28:18;;;;;;;7.70;1.50;;;5.80;94.40;;;;;;5025396;28;20395;-73
2023/01/15 03:30:44;;;;;;;4.35;1.20;;;5.90;94.10;;;;;;5027889;28;20397;-72
2023/01/15 03:33:10;;;;;;;6.05;1.30;;;5.80;94.30;;;;;;5028422;28;20048;-73
2023/01/15 03:35:57;;;;;;;11.68;1.35;;;5.80;94.50;;;;;;5024339;28;20021;-72
2023/01/15 03:38:25;;;;;;;7.88;1.52;;;5.80;94.40;;;;;;5026811;28;20021;-74
2023/01/15 03:40:59;;;;;;;6.60;1.48;;;5.80;94.20;;;;;;5026867;28;20037;-72
2023/01/15 03:43:53;;;;;;;3.33;0.98;;;5.80;94.00;;;;;;5021240;28;20112;-73
2023/01/15 03:46:45;;;;;;;4.57;1.20;;;5.80;94.30;;;;;;5024564;28;20053;-72
2023/01/15 03:49:41;;;;;;;7.93;1.33;;;5.80;94.60;;;;;;5021728;28;20029;-73
2023/01/15 03:52:18;;;;;;;8.60;1.45;;;5.70;94.50;;;;;;5024159;28;20029;-73
2023/01/15 03:55:05;;;;;;;11.43;1.33;;;5.80;94.40;;;;;;5020614;28;20038;-72
2023/01/15 03:57:47;;;;;;;7.93;1.73;;;5.70;94.40;;;;;;5020426;28;20175;-73
2023/01/15 04:00:25;;;;;;;6.60;1.58;;;5.80;94.20;;;;;;5022741;28;20455;-73
2023/01/15 04:02:53;;;;;;;4.40;1.00;;;5.70;94.00;;;;;;5022272;28;20026;-74
2023/01/15 04:05:19;;;;;;;7.78;1.30;;;5.70;94.00;;;;;;5022395;28;20030;-73
2023/01/15 04:07:47;;;;;;;6.05;0.90;;;5.60;94.10;;;;;;5021659;28;20037;-74
2023/01/15 04:10:12;;;;;;;4.57;1.50;;;5.70;94.00;;;;;;5027796;28;20034;-74
2023/01/15 04:12:38;;;;;;;10.38;1.33;;;5.70;93.90;;;;;;5024072;28;20036;-73
2023/01/15 04:15:04;;;;;;;7.38;1.25;;;5.70;93.80;;;;;;5020914;28;20033;-74
2023/01/15 04:17:29;;;;;;;8.55;1.33;;;5.70;93.70;;;;;;5026075;28;20116;-72
2023/01/15 04:19:55;;;;;;;7.65;1.45;;;5.60;93.90;;;;;;5022860;28;20426;-73
2023/01/15 04:22:20;;;;;;;11.15;1.45;;;5.60;93.70;;;;;;5023045;28;20058;-72
2023/01/15 04:24:46;;;;;;;11.25;1.48;;;5.60;93.80;;;;;;5027798;28;20033;-72
2023/01/15 04:27:11;;;;;;;7.10;1.40;;;5.60;93.80;;;;;;5025042;28;20445;-72
2023/01/15 04:29:37;;;;;;;10.10;1.40;;;5.60;93.80;;;;;;5024304;28;20025;-72
2023/01/15 04:32:03;;;;;;;4.53;1.10;;;5.60;93.90;;;;;;5027111;28;20607;-73
2023/01/15 04:34:28;;;;;;;10.55;1.13;;;5.60;94.00;;;;;;5018064;28;20098;-73
2023/01/15 04:36:55;;;;;;;9.95;1.80;;;5.60;94.00;;;;;;5024821;28;20036;-73
2023/01/15 04:39:21;;;;;;;8.82;1.45;;;5.70;93.60;;;;;;5027384;28;20124;-73
2023/01/15 04:44:33;;;;;;;11.93;1.42;;;5.70;93.50;;;;;;5023948;28;20052;-73
2023/01/15 04:46:59;;;;;;;6.88;1.20;;;5.70;93.40;;;;;;5029957;28;20068;-72
2023/01/15 04:49:24;;;;;;;7.85;1.77;;;5.80;93.20;;;;;;5027544;28;20057;-72
2023/01/15 04:51:50;;;;;;;9.93;1.55;;;5.80;93.10;;;;;;5027206;28;20063;-73
2023/01/15 04:54:16;;;;;;;8.60;1.23;;;5.70;93.50;;;;;;5025110;28;20036;-73
2023/01/15 04:56:45;;;;;;;8.10;1.52;;;5.60;93.40;;;;;;5033115;28;20029;-73
2023/01/15 04:59:11;;;;;;;9.38;1.55;;;5.70;93.20;;;;;;5032836;28;20025;-73
2023/01/15 05:01:37;;;;;;;7.47;1.30;;;5.70;93.10;;;;;;5026527;28;20076;-73
2023/01/15 05:04:03;;;;;;;9.20;1.20;;;5.60;93.00;;;;;;5029456;28;20603;-72
2023/01/15 05:06:32;;;;;;;6.35;1.25;;;5.60;93.40;;;;;;5030792;28;20040;-72
2023/01/15 05:08:58;;;;;;;9.75;1.90;;;5.50;93.20;;;;;;5019492;28;20136;-74
2023/01/15 05:11:24;;;;;;;5.57;1.33;;;5.60;93.00;;;;;;5030218;28;20040;-73
2023/01/15 05:13:49;;;;;;;7.03;1.20;;;5.50;93.40;;;;;;5028337;28;20025;-72
2023/01/15 05:16:24;;;;;;;6.53;1.45;;;5.40;93.60;;;;;;5029161;28;20041;-72
2023/01/15 05:18:50;;;;;;;10.00;1.55;;;5.50;93.20;;;;;;5026968;28;20544;-72
2023/01/15 05:21:22;;;;;;;8.23;1.52;;;5.50;93.40;;;;;;5024445;28;20044;-73
2023/01/15 05:23:49;;;;;;;9.77;1.63;;;5.50;93.30;;;;;;5023915;28;20113;-73
2023/01/15 05:26:15;;;;;;;11.45;1.80;;;5.50;93.20;;;;;;5028887;28;20394;-72
2023/01/15 05:28:40;;;;;;;8.80;1.55;;;5.50;93.20;;;;;;5026977;28;20040;-70
2023/01/15 05:31:11;;;;;;;9.15;1.30;;;5.50;93.30;;;;;;5027114;28;20041;-70
2023/01/15 05:33:38;;;;;;;9.60;1.42;;;5.50;93.50;;;;;;5022986;28;20053;-70
2023/01/15 05:36:07;;;;;;;10.02;2.20;;;5.50;93.20;;;;;;5029163;28;20080;-69
2023/01/15 05:38:32;;;;;;;8.40;1.50;;;5.50;93.10;;;;;;5022998;28;20026;-70
2023/01/15 05:40:58;;;;;;;7.93;1.35;;;5.50;93.20;;;;;;5026762;28;20978;-70
2023/01/15 05:43:24;;;;;;;13.45;1.55;;;5.60;93.00;;;;;;5028187;28;20036;-69
2023/01/15 05:45:50;;;;;;;10.88;1.70;;;5.50;93.40;;;;;;5028266;28;20167;-70
2023/01/15 05:48:15;;;;;;;12.13;1.48;;;5.50;93.60;;;;;;5028260;28;20034;-70
2023/01/15 05:50:40;;;;;;;8.23;1.48;;;5.40;93.90;;;;;;5028006;28;20038;-69
2023/01/15 05:53:06;;;;;;;8.05;1.27;;;5.40;93.80;;;;;;5026509;28;20085;-70
2023/01/15 05:55:32;;;;;;;7.45;1.27;;;5.40;93.90;;;;;;5027614;28;20048;-70
2023/01/15 05:57:58;;;;;;;13.55;1.98;;;5.40;94.00;;;;;;5026971;28;20459;-70
2023/01/15 06:00:24;;;;;;;9.70;1.38;;;5.40;93.90;;;;;;5026132;28;20110;-70
2023/01/15 06:02:50;;;;;;;4.50;1.23;;;5.30;94.10;;;;;;5030160;28;20071;-70
2023/01/15 06:05:19;;;;;;;4.75;1.23;;;5.40;93.90;;;;;;5026315;28;20041;-70
2023/01/15 06:07:47;;;;;;;7.63;1.75;;;5.40;93.90;;;;;;5027737;28;20100;-70
2023/01/15 06:10:15;;;;;;;12.40;1.98;;;5.40;93.70;;;;;;5025361;28;20115;-70
2023/01/15 06:12:40;;;;;;;9.15;1.50;;;5.40;93.80;;;;;;5030079;28;20029;-70
2023/01/15 06:15:06;;;;;;;8.55;1.50;;;5.30;94.00;;;;;;5028681;28;20143;-72
2023/01/15 06:17:32;;;;;;;9.13;2.10;;;5.30;94.00;;;;;;5029779;28;20036;-71
2023/01/15 06:19:57;;;;;;;4.95;1.13;;;5.30;93.90;;;;;;5025218;28;20021;-72
2023/01/15 06:22:22;;;;;;;8.95;1.70;;;5.40;93.80;;;;;;5021244;28;20067;-71
2023/01/15 06:24:48;;;;;;;6.22;1.38;;;5.30;93.90;;;;;;5028715;28;20037;-70
2023/01/15 06:27:13;;;;;;;7.18;1.48;;;5.40;93.40;;;;;;5026799;28;20167;-71
2023/01/15 06:29:39;;;;;;;9.93;1.70;;;5.50;93.30;;;;;;5023128;28;20040;-72
2023/01/15 06:32:04;;;;;;;9.50;1.42;;;5.50;93.40;;;;;;5027532;28;20404;-72
2023/01/15 06:34:30;;;;;;;9.80;1.67;;;5.60;92.80;;;;;;5027478;28;20037;-72
2023/01/15 06:36:55;;;;;;;7.55;1.80;;;5.60;92.80;;;;;;5027803;28;20033;-73
2023/01/15 06:39:21;;;;;;;8.38;1.30;;;5.60;92.90;;;;;;5029128;28;20037;-72
2023/01/15 06:47:20;;;;;;;8.52;1.83;;;5.50;93.20;;;;;;5024566;28;20125;-72
2023/01/15 06:49:45;;;;;;;5.53;1.40;;;5.50;93.00;;;;;;5018600;28;20026;-72
2023/01/15 06:52:11;;;;;;;8.10;1.40;;;5.40;93.20;;;;;;5019854;28;20465;-72
2023/01/15 06:54:36;;;;;;;7.65;1.55;;;5.40;93.40;;;;;;5028860;28;20033;-72
2023/01/15 06:57:02;;;;;;;13.50;2.03;;;5.40;93.60;;;;;;5020057;28;20684;-72
2023/01/15 06:59:28;;;;;;;8.25;1.65;;;5.50;93.20;;;;;;5024437;28;20082;-72
2023/01/15 07:01:54;;;;;;;9.52;2.08;;;5.40;93.00;;;;;;5027385;28;20034;-72
2023/01/15 07:04:19;;;;;;;8.27;1.80;;;5.50;92.90;;;;;;5026395;28;20443;-72
2023/01/15 07:06:45;;;;;;;11.85;1.98;;;5.50;93.00;;;;;;5025802;28;20049;-72
2023/01/15 07:09:10;;;;;;;9.52;2.17;;;5.60;92.50;;;;;;5022414;28;20041;-72
2023/01/15 07:11:48;;;;;;;9.20;1.88;;;5.50;92.40;;;;;;5022070;28;20030;-72
2023/01/15 07:14:17;;;;;;;11.82;1.58;;;5.50;92.60;;;;;;5028214;28;20029;-72
2023/01/15 07:16:42;;;;;;;5.30;1.90;;;5.50;92.40;;;;;;5024189;28;20367;-72
2023/01/15 07:19:08;;;;;;;7.90;1.90;;;5.50;92.40;;;;;;5025624;28;20120;-72
2023/01/15 07:21:33;;;;;;;8.80;2.00;;;5.60;92.10;;;;;;5026850;28;20389;-72
2023/01/15 07:24:00;;;;;;;9.63;1.80;;;5.60;91.80;;;;;;5023962;28;20026;-72
2023/01/15 07:26:26;;;;;;;5.15;1.42;;;5.60;91.70;;;;;;5021438;28;20029;-72
2023/01/15 07:28:52;;;;;;;10.52;2.00;;;5.60;91.80;;;;;;5027432;28;20045;-73
2023/01/15 07:31:17;;;;;;;6.55;2.00;;;5.60;91.20;;;;;;5026371;28;20065;-73
2023/01/15 07:33:43;;;;;;;6.82;1.92;;;5.60;91.20;;;;;;5024548;28;20025;-73
2023/01/15 07:36:08;;;;;;;7.45;1.77;;;5.60;91.10;;;;;;5027251;28;20037;-73
2023/01/15 07:38:34;;;;;;;12.60;2.38;;;5.60;91.20;;;;;;5021422;28;20037;-73
2023/01/15 07:51:57;;;;;;;9.18;2.10;;;5.50;91.00;;;;;;5028399;28;20044;-72
2023/01/15 07:54:23;;;;;;;8.07;1.60;;;5.50;90.70;;;;;;5018749;28;20033;-72
2023/01/15 07:56:51;;;;;;;5.78;1.92;;;5.40;91.00;;;;;;5024183;28;20386;-72
2023/01/15 07:59:17;;;;;;;9.98;2.10;;;5.60;90.10;;;;;;5026098;28;20021;-72
2023/01/15 08:01:42;;;;;;;12.13;1.70;;;5.60;90.10;;;;;;5026632;28;20044;-72
2023/01/15 08:04:08;;;;;;;11.45;1.77;;;5.60;89.90;;;;;;5026457;28;20052;-72
2023/01/15 08:06:34;;;;;;;7.45;1.70;;;5.60;89.90;;;;;;5023870;28;20172;-73
2023/01/15 08:09:00;;;;;;;11.02;1.90;;;5.60;89.90;;;;;;5023244;28;20525;-73
2023/01/15 08:16:53;;;;;;;12.20;1.52;;;5.50;89.80;;;;;;5027606;28;20107;-72
2023/01/15 08:19:19;;;;;;;7.80;1.90;;;5.40;89.70;;;;;;5029515;28;20029;-73
2023/01/15 08:21:44;;;;;;;11.25;1.65;;;5.40;89.80;;;;;;5030386;28;20399;-73
2023/01/15 08:24:10;;;;;;;7.55;1.48;;;5.30;89.90;;;;;;5025008;28;20169;-73
2023/01/15 08:26:35;;;;;;;13.15;2.15;;;5.30;90.00;;;;;;5027087;28;20098;-71
2023/01/15 08:29:01;;;;;;;7.55;1.88;;;5.40;89.70;;;;;;5026580;28;20033;-71
2023/01/15 08:31:26;;;;;;;11.38;1.27;;;5.30;90.00;;;;;;5021083;28;20029;-71
2023/01/15 08:33:52;;;;;;;4.93;1.20;;;5.40;90.10;;;;;;5022269;28;20025;-71
2023/01/15 08:36:17;;;;;;;8.75;1.67;;;5.40;89.80;;;;;;5029977;28;20040;-71
2023/01/15 08:38:43;;;;;;;9.48;1.20;;;5.40;89.60;;;;;;5028119;28;20485;-71
2023/01/15 08:41:08;;;;;;;9.90;1.50;;;5.40;89.50;;;;;;5030086;28;20034;-71
2023/01/15 08:43:34;;;;;;;14.70;2.53;;;5.40;88.90;;;;;;5027146;28;20041;-71
2023/01/15 08:46:02;;;;;;;7.57;1.75;;;5.40;89.40;;;;;;5025426;28;20498;-71
2023/01/15 08:48:29;;;;;;;6.03;1.20;;;5.40;89.20;;;;;;5026538;28;20386;-71
2023/01/15 08:50:55;;;;;;;12.07;1.75;;;5.30;89.50;;;;;;5027489;28;20068;-71
2023/01/15 08:53:21;;;;;;;7.95;1.67;;;5.30;88.90;;;;;;5021956;28;20034;-71
2023/01/15 08:55:47;;;;;;;6.32;1.42;;;5.30;88.80;;;;;;5028360;28;20029;-71
2023/01/15 08:58:13;;;;;;;7.43;1.60;;;5.40;87.30;;;;;;5031320;28;20045;-71
2023/01/15 09:00:39;;;;;;;8.10;1.30;;;5.50;87.00;;;;;;5026381;28;20445;-71
2023/01/15 09:03:04;;;;;;;4.63;1.27;;;5.50;86.30;;;;;;5026640;28;20474;-71
2023/01/15 09:05:30;;;;;;;2.97;0.98;;;5.60;85.00;;;;;;5028460;28;20045;-71
2023/01/15 09:07:55;;;;;;;6.38;1.15;;;5.50;85.70;;;;;;5023251;28;20044;-72
2023/01/15 09:10:22;;;;;;;6.72;0.90;;;5.50;83.40;;;;;;5026834;28;20041;-71
2023/01/15 09:12:48;;;;;;;7.80;1.13;;;5.30;84.30;;;;;;5030713;28;20037;-71
2023/01/15 09:15:13;;;;;;;4.60;1.00;;;5.20;84.70;;;;;;5029100;28;20091;-71
2023/01/15 09:17:39;;;;;;;5.70;0.85;;;5.10;84.50;;;;;;5027051;28;20363;-72
2023/01/15 09:20:08;;;;;;;4.95;1.10;;;5.10;83.80;;;;;;5027563;28;20100;-71
2023/01/15 09:22:33;;;;;;;3.38;0.60;;;5.00;84.40;;;;;;5023449;28;20126;-71
2023/01/15 09:24:59;;;;;;;2.55;0.63;;;5.10;82.10;;;;;;5028919;28;20041;-71
2023/01/15 09:27:25;;;;;;;5.25;1.10;;;5.00;82.30;;;;;;5032638;28;20041;-71
2023/01/15 09:29:51;;;;;;;2.03;0.80;;;5.00;83.00;;;;;;5030778;28;20048;-70
2023/01/15 09:32:16;;;;;;;3.38;1.00;;;4.90;83.40;;;;;;5021696;28;20474;-71
2023/01/15 09:34:42;;;;;;;4.57;1.05;;;5.00;83.30;;;;;;5023281;28;20119;-71
2023/01/15 09:37:07;;;;;;;3.88;0.95;;;4.90;84.70;;;;;;5023498;28;20044;-69
2023/01/15 09:39:33;;;;;;;7.13;1.20;;;4.80;85.20;;;;;;5028580;28;20033;-70
2023/01/15 09:42:11;;;;;;;4.72;0.88;;;4.90;84.90;;;;;;5027899;28;20505;-70
2023/01/15 09:44:51;;;;;;;3.10;0.90;;;5.00;85.40;;;;;;5027263;28;20033;-71
2023/01/15 09:47:30;;;;;;;5.65;1.08;;;5.00;85.70;;;;;;5026742;28;20125;-71
2023/01/15 09:50:36;;;;;;;3.95;1.25;;;5.00;85.90;;;;;;5024616;28;20041;-71
2023/01/15 09:53:36;;;;;;;9.73;1.38;;;5.00;85.90;;;;;;5010563;28;20048;-72
2023/01/15 09:56:03;;;;;;;7.05;1.08;;;5.20;86.30;;;;;;5025915;28;20042;-72
2023/01/15 09:58:39;;;;;;;6.18;1.48;;;5.30;86.10;;;;;;5028695;28;20120;-71
2023/01/15 10:01:06;;;;;;;4.82;1.25;;;5.40;86.20;;;;;;5026821;28;20374;-72
2023/01/15 10:03:39;;;;;;;6.35;1.27;;;5.40;85.80;;;;;;5022508;28;20117;-71
2023/01/15 10:06:16;;;;;;;4.38;1.48;;;5.60;86.10;;;;;;5022567;28;20478;-71
2023/01/15 10:08:45;;;;;;;3.35;1.10;;;5.60;85.50;;;;;;5025880;28;20084;-72
2023/01/15 10:11:14;;;;;;;5.60;1.10;;;5.60;84.80;;;;;;5028031;28;20048;-71
2023/01/15 10:14:10;;;;;;;8.25;1.48;;;5.70;84.70;;;;;;5022580;28;20497;-71
2023/01/15 10:16:35;;;;;;;6.90;1.45;;;5.80;83.70;;;;;;5022766;28;20075;-71
2023/01/15 10:19:02;;;;;;;6.97;1.10;;;5.80;83.70;;;;;;5025402;28;20119;-71
2023/01/15 10:21:43;;;;;;;4.63;1.20;;;5.90;82.60;;;;;;5019079;28;20126;-72
2023/01/15 10:24:11;;;;;;;2.80;0.73;;;5.90;82.00;;;;;;5021875;28;20113;-71
2023/01/15 10:26:42;;;;;;;3.33;0.80;;;6.00;82.60;;;;;;5025845;28;20049;-71
2023/01/15 10:29:42;;;;;;;5.80;0.90;;;6.10;82.00;;;;;;5024284;28;20112;-72
2023/01/15 10:32:25;;;;;;;5.43;1.02;;;6.10;80.40;;;;;;5025232;28;20390;-71
2023/01/15 10:35:05;;;;;;;4.18;0.70;;;6.10;80.30;;;;;;5017256;28;20057;-70
2023/01/15 10:37:40;;;;;;;4.32;1.00;;;6.20;79.80;;;;;;5025374;28;20036;-73
2023/01/15 10:40:31;;;;;;;5.93;0.77;;;6.20;81.20;;;;;;5027409;28;20029;-71
2023/01/15 10:43:21;;;;;;;3.05;0.82;;;6.30;79.80;;;;;;5026253;28;20398;-69
2023/01/15 10:45:58;;;;;;;3.60;0.93;;;6.40;80.40;;;;;;5023179;28;20087;-69
2023/01/15 10:48:32;;;;;;;4.60;0.93;;;6.50;79.70;;;;;;5023249;28;20038;-71
2023/01/15 10:51:02;;;;;;;9.50;1.52;;;6.60;79.40;;;;;;5020735;28;20021;-72
2023/01/15 10:53:37;;;;;;;6.20;1.20;;;6.50;78.50;;;;;;5024778;28;20465;-71
2023/01/15 10:56:11;;;;;;;6.20;1.00;;;6.70;79.00;;;;;;5031868;28;20060;-71
2023/01/15 10:58:48;;;;;;;6.05;0.80;;;6.70;78.60;;;;;;5019009;28;20549;-70
2023/01/15 11:01:18;;;;;;;5.40;1.25;;;6.80;79.10;;;;;;5027382;28;20037;-70
2023/01/15 11:03:44;;;;;;;8.00;1.27;;;6.80;79.00;;;;;;5026742;28;20038;-70
2023/01/15 11:06:16;;;;;;;6.40;1.08;;;6.80;78.00;;;;;;5024262;28;20034;-70
2023/01/15 11:08:57;;;;;;;5.68;0.93;;;6.80;77.50;;;;;;5025358;28;20424;-70
2023/01/15 11:19:40;;;;;;;5.95;0.90;;;7.00;76.60;;;;;;5023041;28;20949;-71
2023/01/15 11:22:17;;;;;;;7.93;1.25;;;6.80;76.80;;;;;;5021488;28;20046;-71
2023/01/15 11:24:51;;;;;;;5.13;0.98;;;6.70;78.10;;;;;;5024498;28;20038;-70
2023/01/15 11:27:21;;;;;;;6.60;1.30;;;6.60;77.70;;;;;;5027284;28;20461;-70
2023/01/15 11:29:56;;;;;;;8.03;1.17;;;6.70;77.90;;;;;;5022096;28;20049;-71
2023/01/15 11:32:32;;;;;;;7.47;1.20;;;6.60;76.80;;;;;;5021827;28;20474;-70
2023/01/15 11:35:17;;;;;;;5.82;1.02;;;6.50;77.40;;;;;;5019530;28;20030;-71
2023/01/15 11:37:43;;;;;;;6.35;1.10;;;6.40;78.70;;;;;;5022274;28;20501;-70
2023/01/15 11:40:35;;;;;;;5.72;1.25;;;6.30;78.50;;;;;;5022320;28;20028;-70
2023/01/15 11:51:29;;;;;;;6.78;1.73;;;5.30;88.10;;;;;;5026998;28;20036;-70
2023/01/15 11:54:01;;;;;;;3.10;1.13;;;4.70;90.50;;;;;;5029443;28;20045;-70
2023/01/15 11:56:30;;;;;;;8.90;1.40;;;4.30;93.50;;;;;;5030112;28;20052;-70
2023/01/15 11:58:59;;;;;;;6.53;1.25;;;4.20;93.90;;;;;;5028914;28;20402;-71
2023/01/15 12:01:33;;;;;;;3.95;1.20;;;4.10;94.60;;;;;;5030987;28;20036;-70
2023/01/15 12:04:21;;;;;;;5.47;1.30;;;4.00;94.70;;;;;;5027772;28;20036;-70
2023/01/15 12:06:47;;;;;;;4.97;1.33;;;4.00;94.70;;;;;;5028402;28;20377;-70
2023/01/15 12:09:36;;;;;;;3.85;1.40;;;3.90;94.90;;;;;;5029781;28;20112;-70
2023/01/15 12:12:29;;;;;;;3.85;1.30;;;3.90;95.00;;;;;;5026765;28;20067;-70
2023/01/15 12:15:11;;;;;;;6.40;1.90;;;4.00;94.70;;;;;;5030191;28;20044;-70
2023/01/15 12:17:49;;;;;;;4.22;1.20;;;4.30;93.20;;;;;;5017942;28;20029;-70
2023/01/15 12:20:30;;;;;;;8.32;1.73;;;4.50;93.10;;;;;;5028975;28;20753;-70
2023/01/15 12:23:22;;;;;;;5.28;1.90;;;4.60;92.70;;;;;;5024320;28;20049;-70
2023/01/15 12:26:16;;;;;;;5.25;1.27;;;4.60;93.00;;;;;;5026906;28;20211;-70
2023/01/15 12:29:06;;;;;;;8.48;1.40;;;4.60;92.40;;;;;;5029419;28;20026;-70
2023/01/15 12:31:40;;;;;;;7.00;1.58;;;4.70;92.80;;;;;;5027404;28;20102;-70
2023/01/15 12:34:23;;;;;;;7.80;1.45;;;4.80;91.00;;;;;;5024664;28;20037;-70
2023/01/15 12:37:01;;;;;;;7.97;1.75;;;4.80;92.30;;;;;;5026636;28;20286;-71
2023/01/15 12:39:44;;;;;;;7.07;1.65;;;4.80;92.60;;;;;;5029318;28;20063;-70
2023/01/15 12:45:17;;;;;;;6.82;1.60;;;5.10;90.70;;;;;;5027184;28;20029;-70
2023/01/15 12:48:11;;;;;;;2.30;0.82;;;5.20;90.40;;;;;;5026793;28;20551;-70
2023/01/15 12:50:36;;;;;;;8.10;1.23;;;5.30;89.90;;;;;;5028527;28;20032;-70
2023/01/15 12:53:18;;;;;;;10.63;1.30;;;5.20;89.90;;;;;;5028947;28;20112;-70
2023/01/15 12:55:57;;;;;;;7.05;1.42;;;5.30;88.50;;;;;;5030016;28;20037;-70
2023/01/15 12:58:25;;;;;;;9.27;1.40;;;5.30;88.80;;;;;;5028720;28;20052;-70
2023/01/15 13:01:16;;;;;;;5.32;1.40;;;5.40;87.70;;;;;;5031546;28;20032;-70
2023/01/15 13:03:56;;;;;;;8.00;1.17;;;5.60;86.90;;;;;;5031032;28;20029;-70
2023/01/15 13:06:25;;;;;;;4.13;1.35;;;5.70;85.30;;;;;;5032302;28;20049;-70
2023/01/15 13:08:58;;;;;;;4.22;1.30;;;5.80;85.30;;;;;;5032573;28;20171;-70
2023/01/15 13:11:24;;;;;;;9.07;1.27;;;5.80;84.30;;;;;;5033700;28;20048;-70
2023/01/15 13:13:58;;;;;;;13.77;1.52;;;5.80;85.20;;;;;;5032180;28;20037;-70
2023/01/15 13:16:45;;;;;;;7.30;1.23;;;5.80;83.50;;;;;;5030457;28;20029;-70
2023/01/15 13:19:21;;;;;;;9.50;1.52;;;5.90;83.50;;;;;;5028067;28;20071;-70
2023/01/15 13:21:51;;;;;;;6.82;1.60;;;5.90;83.50;;;;;;5032243;28;20060;-70
2023/01/15 13:24:29;;;;;;;3.85;0.98;;;5.80;84.90;;;;;;5032908;28;20116;-70
2023/01/15 13:27:16;;;;;;;8.10;1.45;;;5.80;83.80;;;;;;5032442;28;20121;-70
2023/01/15 13:30:14;;;;;;;8.63;1.20;;;5.80;85.10;;;;;;5025751;28;20382;-70
2023/01/15 13:32:47;;;;;;;6.00;1.27;;;5.60;86.10;;;;;;5026051;28;20034;-70
2023/01/15 13:35:34;;;;;;;6.45;1.42;;;5.40;87.80;;;;;;5031116;28;20085;-70
2023/01/15 13:38:03;;;;;;;3.03;0.90;;;5.30;88.30;;;;;;5030128;28;20424;-70
2023/01/15 13:40:37;;;;;;;7.40;1.23;;;5.60;86.20;;;;;;5032467;28;20083;-70
2023/01/15 13:43:08;;;;;;;5.30;0.90;;;5.70;86.00;;;;;;5031435;28;20421;-70
2023/01/15 13:45:46;;;;;;;2.90;1.38;;;5.70;85.50;;;;;;5030291;28;20444;-70
2023/01/15 13:48:28;;;;;;;5.57;1.17;;;5.60;86.10;;;;;;5025151;28;20462;-70
2023/01/15 13:50:58;;;;;;;3.40;1.00;;;5.60;86.20;;;;;;5030935;28;20026;-70
2023/01/15 13:53:31;;;;;;;7.43;1.30;;;5.60;85.90;;;;;;5031569;28;20049;-70
2023/01/15 13:56:26;;;;;;;3.85;0.98;;;5.60;85.80;;;;;;5027269;28;20049;-70
2023/01/15 13:58:54;;;;;;;5.38;1.27;;;5.70;85.30;;;;;;5030662;28;20045;-70
2023/01/15 14:01:30;;;;;;;5.25;0.93;;;5.70;85.70;;;;;;5026842;28;20048;-70
2023/01/15 14:04:06;;;;;;;3.20;0.93;;;5.60;85.60;;;;;;5031533;28;20473;-71